Time;durP1;ratioP1;P1;durP2;ratioP2;P2;SDS_P1;SDS_P2;PMS_P1;PMS_P2;Temp;Humidity;BMP_temperature;BMP_pressure;BME280_temperature;BME280_humidity;BME280_pressure;Samples;Min_cycle;Max_cycle;Signal;HPM_P1;HPM_P2
2023/12/18 00:00:42;;;;;;;6.93;5.70;;;;;;;;;;5056527;28;20559;-77
2023/12/18 00:03:09;;;;;;;6.63;5.93;;;;;;;;;;5074328;28;20251;-77
2023/12/18 00:05:36;;;;;;;7.27;5.47;;;;;;;;;;5073857;28;20201;-78
2023/12/18 00:08:06;;;;;;;6.90;5.13;;;;;;;;;;5073267;28;20201;-78
2023/12/18 00:10:33;;;;;;;10.60;6.77;;;;;;;;;;5072936;28;20284;-78
2023/12/18 00:13:00;;;;;;;7.80;7.00;;;;;;;;;;5072559;28;20560;-78
2023/12/18 00:15:27;;;;;;;11.80;7.80;;;;;;;;;;5072561;28;20197;-78
2023/12/18 00:17:54;;;;;;;8.10;6.23;;;;;;;;;;5073821;28;20208;-78
2023/12/18 00:20:21;;;;;;;5.93;4.87;;;;;;;;;;5073572;28;20210;-78
2023/12/18 00:22:48;;;;;;;7.33;6.63;;;;;;;;;;5073418;28;20200;-78
2023/12/18 00:25:17;;;;;;;5.40;4.90;;;;;;;;;;5055661;28;20224;-78
2023/12/18 00:27:43;;;;;;;5.53;4.63;;;;;;;;;;5076672;28;20197;-77
2023/12/18 00:30:11;;;;;;;6.73;4.50;;;;;;;;;;5113945;28;20259;-77
2023/12/18 00:32:38;;;;;;;5.50;4.77;;;;;;;;;;5113856;28;20211;-77
2023/12/18 00:35:08;;;;;;;6.07;4.97;;;;;;;;;;5113852;28;20199;-77
2023/12/18 00:37:35;;;;;;;7.97;5.77;;;;;;;;;;5096132;28;20315;-78
2023/12/18 00:40:02;;;;;;;11.83;7.20;;;;;;;;;;5095299;28;20195;-77
2023/12/18 00:42:30;;;;;;;7.90;6.00;;;;;;;;;;5095076;28;20286;-78
2023/12/18 00:44:57;;;;;;;7.20;5.43;;;;;;;;;;5113487;28;20222;-78
2023/12/18 00:47:24;;;;;;;5.43;4.90;;;;;;;;;;5113435;28;20199;-78
2023/12/18 00:49:51;;;;;;;9.30;5.57;;;;;;;;;;5113631;28;20563;-78
2023/12/18 00:52:18;;;;;;;7.63;5.77;;;;;;;;;;5095206;28;20222;-78
2023/12/18 00:54:45;;;;;;;5.73;4.13;;;;;;;;;;5078184;28;20218;-79
2023/12/18 00:57:12;;;;;;;3.50;3.10;;;;;;;;;;5113857;28;20214;-78
2023/12/18 00:59:41;;;;;;;5.43;4.77;;;;;;;;;;5095400;28;20198;-78
2023/12/18 01:02:10;;;;;;;5.73;5.00;;;;;;;;;;5113447;28;20195;-79
2023/12/18 01:04:37;;;;;;;4.07;3.60;;;;;;;;;;5095181;28;20223;-79
2023/12/18 01:07:05;;;;;;;4.67;3.23;;;;;;;;;;5113669;28;20191;-79
2023/12/18 01:09:32;;;;;;;3.10;2.80;;;;;;;;;;5113216;28;20207;-79
2023/12/18 01:11:59;;;;;;;4.63;3.43;;;;;;;;;;5095139;28;20199;-79
2023/12/18 01:14:26;;;;;;;4.73;2.87;;;;;;;;;;5113290;28;20233;-79
2023/12/18 01:16:54;;;;;;;3.40;3.10;;;;;;;;;;5113419;28;20218;-79
2023/12/18 01:19:21;;;;;;;5.03;3.33;;;;;;;;;;5112540;28;20665;-79
2023/12/18 01:21:48;;;;;;;3.60;3.03;;;;;;;;;;5112419;28;20202;-79
2023/12/18 01:24:15;;;;;;;3.67;3.10;;;;;;;;;;5094521;28;20226;-79
2023/12/18 01:26:43;;;;;;;5.67;3.53;;;;;;;;;;5112620;28;20195;-79
2023/12/18 01:29:09;;;;;;;6.67;5.10;;;;;;;;;;5112842;28;20280;-79
2023/12/18 01:31:36;;;;;;;4.43;3.47;;;;;;;;;;5112270;28;20206;-79
2023/12/18 01:34:05;;;;;;;4.43;2.97;;;;;;;;;;5111232;28;20202;-79
2023/12/18 01:36:31;;;;;;;3.40;2.50;;;;;;;;;;5112571;28;20202;-79
2023/12/18 01:38:59;;;;;;;3.63;2.53;;;;;;;;;;5112897;28;20199;-79
2023/12/18 01:41:26;;;;;;;4.27;2.57;;;;;;;;;;5094568;28;20529;-79
2023/12/18 01:43:53;;;;;;;3.33;2.63;;;;;;;;;;5112448;28;20219;-79
2023/12/18 01:46:22;;;;;;;3.00;2.70;;;;;;;;;;5094430;28;20202;-79
2023/12/18 01:48:50;;;;;;;3.07;2.77;;;;;;;;;;5112703;28;20218;-80
2023/12/18 01:51:19;;;;;;;3.17;2.60;;;;;;;;;;5112892;28;20244;-80
2023/12/18 01:53:48;;;;;;;2.57;2.37;;;;;;;;;;5077442;28;20200;-80
2023/12/18 01:56:16;;;;;;;3.63;2.80;;;;;;;;;;5112474;28;20210;-79
2023/12/18 01:58:43;;;;;;;3.33;2.40;;;;;;;;;;5112727;28;20199;-79
2023/12/18 02:01:10;;;;;;;4.13;3.10;;;;;;;;;;5115216;28;20669;-80
2023/12/18 02:03:39;;;;;;;2.77;2.57;;;;;;;;;;5098348;28;20268;-80
2023/12/18 02:06:08;;;;;;;3.30;2.73;;;;;;;;;;5114758;28;20657;-80
2023/12/18 02:08:36;;;;;;;3.23;2.93;;;;;;;;;;5098604;28;20199;-79
2023/12/18 02:11:04;;;;;;;4.23;2.77;;;;;;;;;;5098249;28;20199;-79
2023/12/18 02:13:31;;;;;;;3.73;3.37;;;;;;;;;;5116193;28;20199;-79
2023/12/18 02:15:58;;;;;;;3.73;3.23;;;;;;;;;;5098142;28;20679;-79
2023/12/18 02:18:25;;;;;;;5.60;3.63;;;;;;;;;;5080903;28;20210;-80
2023/12/18 02:20:52;;;;;;;8.00;2.60;;;;;;;;;;5116067;28;20199;-80
2023/12/18 02:23:20;;;;;;;3.63;2.77;;;;;;;;;;5116645;28;20199;-80
2023/12/18 02:25:47;;;;;;;3.30;2.60;;;;;;;;;;5116245;28;20206;-79
2023/12/18 02:28:16;;;;;;;2.47;2.27;;;;;;;;;;5098014;28;20223;-79
2023/12/18 02:30:43;;;;;;;2.83;2.33;;;;;;;;;;5115911;28;20203;-79
2023/12/18 02:33:10;;;;;;;3.20;2.57;;;;;;;;;;5097649;28;20196;-80
2023/12/18 02:35:37;;;;;;;2.43;2.23;;;;;;;;;;5098125;28;20213;-79
2023/12/18 02:38:04;;;;;;;2.87;2.57;;;;;;;;;;5116367;28;20565;-80
2023/12/18 02:40:34;;;;;;;7.73;4.40;;;;;;;;;;5097802;28;20546;-80
2023/12/18 02:43:01;;;;;;;3.50;3.07;;;;;;;;;;5081414;28;20256;-80
2023/12/18 02:45:28;;;;;;;2.93;2.73;;;;;;;;;;5115631;28;20219;-79
2023/12/18 02:47:55;;;;;;;4.00;2.97;;;;;;;;;;5080950;28;20195;-79
2023/12/18 02:50:22;;;;;;;4.07;3.63;;;;;;;;;;5115794;28;20199;-79
2023/12/18 02:52:49;;;;;;;4.07;3.37;;;;;;;;;;5115159;28;20207;-79
2023/12/18 02:55:16;;;;;;;3.50;3.20;;;;;;;;;;5115555;28;20203;-79
2023/12/18 02:57:45;;;;;;;5.60;4.00;;;;;;;;;;5097634;28;20191;-80
2023/12/18 03:00:12;;;;;;;89.17;39.00;;;;;;;;;;5097147;28;20199;-80
2023/12/18 03:02:39;;;;;;;13.73;8.70;;;;;;;;;;5097898;28;20199;-79
2023/12/18 03:05:07;;;;;;;16.53;8.70;;;;;;;;;;5115258;28;20215;-79
2023/12/18 03:07:34;;;;;;;6.17;4.97;;;;;;;;;;5115537;28;20199;-79
2023/12/18 03:10:01;;;;;;;18.57;9.47;;;;;;;;;;5115171;28;20192;-79
2023/12/18 03:12:28;;;;;;;13.30;7.30;;;;;;;;;;5097285;28;20573;-78
2023/12/18 03:14:57;;;;;;;10.27;5.93;;;;;;;;;;5097261;28;20204;-78
2023/12/18 03:17:24;;;;;;;7.63;4.67;;;;;;;;;;5115134;28;20191;-78
2023/12/18 03:19:51;;;;;;;10.53;5.97;;;;;;;;;;5114985;28;20199;-78
2023/12/18 03:22:17;;;;;;;5.20;4.37;;;;;;;;;;5115377;28;20218;-78
2023/12/18 03:24:44;;;;;;;6.43;4.53;;;;;;;;;;5114972;28;20226;-77
2023/12/18 03:27:11;;;;;;;5.97;4.67;;;;;;;;;;5096614;28;20200;-78
2023/12/18 03:29:38;;;;;;;8.23;5.03;;;;;;;;;;5116160;28;20280;-78
2023/12/18 03:32:07;;;;;;;14.60;7.77;;;;;;;;;;5114461;28;20203;-78
2023/12/18 03:34:34;;;;;;;18.73;10.83;;;;;;;;;;5095315;28;20673;-79
2023/12/18 03:37:01;;;;;;;10.33;6.03;;;;;;;;;;5115016;28;20199;-78
2023/12/18 03:39:28;;;;;;;7.37;5.27;;;;;;;;;;5096456;28;20195;-79
2023/12/18 03:41:57;;;;;;;4.90;3.77;;;;;;;;;;5097091;28;20195;-78
2023/12/18 03:44:24;;;;;;;4.17;3.33;;;;;;;;;;5114943;28;20276;-79
2023/12/18 03:46:51;;;;;;;4.10;3.37;;;;;;;;;;5096944;28;20192;-79
2023/12/18 03:49:19;;;;;;;6.00;2.73;;;;;;;;;;5114845;28;20202;-79
2023/12/18 03:51:46;;;;;;;5.00;2.40;;;;;;;;;;5114447;28;20195;-79
2023/12/18 03:54:13;;;;;;;5.00;3.23;;;;;;;;;;5114973;28;20200;-79
2023/12/18 03:56:40;;;;;;;2.83;2.47;;;;;;;;;;5096901;28;20210;-79
2023/12/18 03:59:11;;;;;;;4.50;2.50;;;;;;;;;;5114276;28;20564;-78
2023/12/18 04:01:38;;;;;;;7.40;4.10;;;;;;;;;;5113742;28;20195;-81
2023/12/18 04:04:05;;;;;;;5.57;4.53;;;;;;;;;;5114351;28;20569;-81
2023/12/18 04:06:34;;;;;;;11.70;8.57;;;;;;;;;;5113938;28;20198;-81
2023/12/18 04:09:01;;;;;;;13.80;10.63;;;;;;;;;;5113901;28;20612;-81
2023/12/18 04:11:28;;;;;;;25.80;21.93;;;;;;;;;;5114442;28;20195;-81
2023/12/18 04:13:55;;;;;;;27.37;20.67;;;;;;;;;;5079463;28;20192;-81
2023/12/18 04:16:22;;;;;;;23.30;17.67;;;;;;;;;;5095624;28;20238;-78
2023/12/18 04:18:49;;;;;;;14.73;11.60;;;;;;;;;;5095664;28;20237;-78
2023/12/18 04:21:16;;;;;;;11.90;10.50;;;;;;;;;;5114050;28;20670;-77
2023/12/18 04:23:45;;;;;;;13.27;11.73;;;;;;;;;;5113362;28;20195;-77
2023/12/18 04:26:12;;;;;;;8.03;7.17;;;;;;;;;;5095404;28;20226;-77
2023/12/18 04:28:39;;;;;;;4.67;4.07;;;;;;;;;;5113487;28;20223;-77
2023/12/18 04:31:06;;;;;;;3.73;2.33;;;;;;;;;;5114278;28;20557;-77
2023/12/18 04:33:33;;;;;;;2.40;2.20;;;;;;;;;;5095548;28;20191;-77
2023/12/18 04:36:00;;;;;;;2.23;1.73;;;;;;;;;;5095688;28;20211;-77
2023/12/18 04:38:28;;;;;;;2.30;2.10;;;;;;;;;;5094976;28;20235;-77
2023/12/18 04:40:59;;;;;;;2.97;2.17;;;;;;;;;;5114030;28;20609;-77
2023/12/18 04:43:26;;;;;;;2.57;2.20;;;;;;;;;;5113706;28;20552;-81
2023/12/18 04:45:52;;;;;;;1.80;1.70;;;;;;;;;;5113389;28;20234;-77
2023/12/18 04:48:19;;;;;;;3.10;2.10;;;;;;;;;;5113708;28;20669;-78
2023/12/18 04:50:46;;;;;;;2.70;2.47;;;;;;;;;;5095128;28;20199;-78
2023/12/18 04:53:13;;;;;;;7.80;5.27;;;;;;;;;;5095413;28;20195;-78
2023/12/18 04:55:40;;;;;;;8.53;7.33;;;;;;;;;;5095705;28;20580;-78
2023/12/18 04:58:10;;;;;;;65.53;31.67;;;;;;;;;;5095339;28;20200;-78
2023/12/18 05:00:37;;;;;;;13.50;8.57;;;;;;;;;;5095013;28;20199;-78
2023/12/18 05:03:04;;;;;;;5.73;3.63;;;;;;;;;;5113717;28;20196;-78
2023/12/18 05:05:31;;;;;;;3.70;3.00;;;;;;;;;;5113220;28;20227;-78
2023/12/18 05:07:58;;;;;;;3.60;2.73;;;;;;;;;;5113104;28;20677;-78
2023/12/18 05:10:25;;;;;;;4.57;2.83;;;;;;;;;;5078513;28;20207;-78
2023/12/18 05:12:52;;;;;;;3.20;2.50;;;;;;;;;;5113028;28;20203;-78
2023/12/18 05:15:20;;;;;;;3.63;2.53;;;;;;;;;;5094972;28;20195;-78
2023/12/18 05:17:47;;;;;;;1.77;1.67;;;;;;;;;;5112941;28;20196;-78
2023/12/18 05:20:14;;;;;;;2.53;2.30;;;;;;;;;;5112576;28;20550;-79
2023/12/18 05:22:41;;;;;;;9.10;6.73;;;;;;;;;;5094766;28;20204;-78
2023/12/18 05:25:09;;;;;;;7.37;5.97;;;;;;;;;;5112150;28;20229;-79
2023/12/18 05:27:36;;;;;;;8.60;6.33;;;;;;;;;;5112606;28;20222;-78
2023/12/18 05:30:04;;;;;;;7.43;5.10;;;;;;;;;;5094470;28;20552;-78
2023/12/18 05:32:33;;;;;;;7.20;5.60;;;;;;;;;;5112655;28;20211;-77
2023/12/18 05:35:00;;;;;;;7.87;6.73;;;;;;;;;;5111579;28;20196;-79
2023/12/18 05:37:27;;;;;;;10.30;8.10;;;;;;;;;;5113705;28;20199;-78
2023/12/18 05:39:53;;;;;;;24.67;14.57;;;;;;;;;;5094085;28;20210;-79
2023/12/18 05:42:20;;;;;;;28.77;19.17;;;;;;;;;;5113091;28;20191;-78
2023/12/18 05:44:47;;;;;;;18.87;14.17;;;;;;;;;;5113114;28;20673;-78
2023/12/18 05:47:14;;;;;;;22.07;12.60;;;;;;;;;;5094051;28;20557;-78
2023/12/18 05:49:43;;;;;;;11.53;9.00;;;;;;;;;;5077846;28;20199;-78
2023/12/18 05:52:10;;;;;;;12.83;9.47;;;;;;;;;;5112611;28;20200;-77
2023/12/18 05:54:39;;;;;;;10.73;7.67;;;;;;;;;;5094099;28;20210;-77
2023/12/18 05:57:09;;;;;;;4.30;3.77;;;;;;;;;;5112935;28;20567;-77
2023/12/18 05:59:36;;;;;;;4.00;3.23;;;;;;;;;;5112391;28;20231;-77
2023/12/18 06:02:03;;;;;;;9.07;7.13;;;;;;;;;;5112197;28;20203;-77
2023/12/18 06:04:30;;;;;;;8.17;4.87;;;;;;;;;;5112313;28;20200;-77
2023/12/18 06:06:58;;;;;;;5.43;4.67;;;;;;;;;;5077490;28;20195;-77
2023/12/18 06:09:25;;;;;;;8.37;5.63;;;;;;;;;;5112271;28;20200;-78
2023/12/18 06:11:52;;;;;;;6.13;4.60;;;;;;;;;;5112267;28;20286;-78
2023/12/18 06:14:18;;;;;;;5.20;4.40;;;;;;;;;;5112709;28;20199;-78
2023/12/18 06:16:45;;;;;;;3.60;3.20;;;;;;;;;;5100645;28;20201;-77
2023/12/18 06:19:12;;;;;;;13.33;3.57;;;;;;;;;;5091759;28;20208;-77
2023/12/18 06:21:41;;;;;;;3.30;3.00;;;;;;;;;;5091473;28;20571;-77
2023/12/18 06:24:09;;;;;;;3.60;2.67;;;;;;;;;;5091486;28;20196;-77
2023/12/18 06:26:36;;;;;;;7.10;5.80;;;;;;;;;;5091410;28;20219;-77
2023/12/18 06:29:05;;;;;;;8.00;7.20;;;;;;;;;;5091815;28;20216;-77
2023/12/18 06:31:32;;;;;;;10.93;8.20;;;;;;;;;;5091876;28;20208;-77
2023/12/18 06:33:58;;;;;;;19.13;10.13;;;;;;;;;;5104408;28;20196;-77
2023/12/18 06:36:25;;;;;;;10.37;9.17;;;;;;;;;;5110651;28;20195;-77
2023/12/18 06:38:52;;;;;;;23.17;15.23;;;;;;;;;;5112256;28;20214;-77
2023/12/18 06:41:20;;;;;;;168.37;65.20;;;;;;;;;;5111639;28;20207;-77
2023/12/18 06:43:47;;;;;;;143.63;57.03;;;;;;;;;;5111575;28;20199;-77
2023/12/18 06:46:14;;;;;;;82.30;37.63;;;;;;;;;;5094777;28;20225;-77
2023/12/18 06:48:42;;;;;;;30.83;16.37;;;;;;;;;;5115006;28;20597;-77
2023/12/18 06:51:08;;;;;;;25.23;15.87;;;;;;;;;;5115866;28;20202;-77
2023/12/18 06:53:35;;;;;;;15.80;10.13;;;;;;;;;;5097392;28;20191;-78
2023/12/18 06:56:05;;;;;;;11.43;9.40;;;;;;;;;;5097351;28;20231;-80
2023/12/18 06:58:33;;;;;;;11.23;7.60;;;;;;;;;;5097815;28;20205;-78
2023/12/18 07:01:00;;;;;;;8.57;6.67;;;;;;;;;;5115006;28;20606;-77
2023/12/18 07:03:27;;;;;;;4.23;3.83;;;;;;;;;;5104890;28;20206;-87
2023/12/18 07:05:55;;;;;;;4.00;3.60;;;;;;;;;;5097131;28;20219;-92
2023/12/18 07:08:23;;;;;;;5.87;3.77;;;;;;;;;;5115538;28;20200;-86
2023/12/18 07:10:50;;;;;;;4.47;4.03;;;;;;;;;;5117896;28;20732;-86
2023/12/18 07:13:18;;;;;;;4.10;3.70;;;;;;;;;;5101763;28;20203;-86
2023/12/18 07:15:47;;;;;;;5.60;3.10;;;;;;;;;;5103546;28;20203;-89
2023/12/18 07:18:14;;;;;;;17.07;3.90;;;;;;;;;;5119711;28;20195;-87
2023/12/18 07:20:43;;;;;;;8.67;3.43;;;;;;;;;;5099212;28;20231;-86
2023/12/18 07:23:11;;;;;;;9.03;3.80;;;;;;;;;;5116455;28;20693;-89
2023/12/18 07:25:38;;;;;;;28.83;7.93;;;;;;;;;;5115506;28;20281;-87
2023/12/18 07:28:09;;;;;;;10.80;7.70;;;;;;;;;;5114830;28;20235;-87
2023/12/18 07:30:36;;;;;;;10.83;5.20;;;;;;;;;;5080939;28;20203;-92
2023/12/18 07:33:09;;;;;;;12.70;7.20;;;;;;;;;;5097778;28;20218;-89
2023/12/18 07:35:37;;;;;;;19.93;6.47;;;;;;;;;;5115695;28;20210;-90
2023/12/18 07:38:08;;;;;;;11.43;5.47;;;;;;;;;;5115047;28;20196;-86
2023/12/18 07:40:35;;;;;;;7.47;4.17;;;;;;;;;;5080480;28;20206;-87
2023/12/18 07:43:04;;;;;;;4.13;3.10;;;;;;;;;;5097169;28;20226;-87
2023/12/18 07:45:31;;;;;;;10.53;4.93;;;;;;;;;;5096641;28;20276;-84
2023/12/18 07:47:58;;;;;;;6.10;4.63;;;;;;;;;;5114766;28;20685;-84
2023/12/18 07:50:27;;;;;;;6.70;4.80;;;;;;;;;;5080685;28;20332;-83
2023/12/18 07:52:54;;;;;;;11.23;5.70;;;;;;;;;;5096606;28;20199;-83
2023/12/18 07:55:21;;;;;;;6.70;4.97;;;;;;;;;;5080359;28;20658;-85
2023/12/18 07:57:48;;;;;;;5.57;3.23;;;;;;;;;;5095705;28;20199;-84
2023/12/18 08:00:16;;;;;;;22.63;16.10;;;;;;;;;;5096230;28;20207;-85
2023/12/18 08:02:43;;;;;;;16.87;13.57;;;;;;;;;;5095926;28;20226;-85
2023/12/18 08:05:10;;;;;;;7.60;6.23;;;;;;;;;;5095582;28;20204;-81
2023/12/18 08:07:40;;;;;;;7.80;4.83;;;;;;;;;;5096771;28;20202;-78
2023/12/18 08:10:09;;;;;;;8.30;4.90;;;;;;;;;;5114363;28;20203;-78
2023/12/18 08:12:37;;;;;;;10.47;6.03;;;;;;;;;;5095955;28;20199;-78
2023/12/18 08:15:08;;;;;;;7.50;4.10;;;;;;;;;;5114435;28;20661;-80
2023/12/18 08:17:38;;;;;;;8.40;4.97;;;;;;;;;;5114647;28;20199;-81
2023/12/18 08:20:11;;;;;;;9.07;6.43;;;;;;;;;;5112361;28;20238;-82
2023/12/18 08:22:39;;;;;;;6.90;4.03;;;;;;;;;;5113966;28;20203;-83
2023/12/18 08:25:10;;;;;;;7.83;4.07;;;;;;;;;;5114343;28;20195;-83
2023/12/18 08:27:36;;;;;;;8.60;3.93;;;;;;;;;;5114341;28;20218;-82
2023/12/18 08:30:05;;;;;;;8.17;5.17;;;;;;;;;;5114290;28;20206;-82
2023/12/18 08:32:32;;;;;;;7.77;5.87;;;;;;;;;;5114202;28;20234;-82
2023/12/18 08:35:00;;;;;;;5.77;4.63;;;;;;;;;;5114053;28;20191;-82
2023/12/18 08:37:27;;;;;;;4.00;3.50;;;;;;;;;;5113868;28;20633;-82
2023/12/18 08:39:55;;;;;;;4.70;3.37;;;;;;;;;;5113958;28;20272;-82
2023/12/18 08:42:23;;;;;;;2.07;1.87;;;;;;;;;;5113555;28;20202;-82
2023/12/18 08:44:50;;;;;;;1.77;1.67;;;;;;;;;;5111920;28;20218;-82
2023/12/18 08:47:17;;;;;;;1.60;1.50;;;;;;;;;;5113699;28;20219;-82
2023/12/18 08:49:44;;;;;;;4.07;2.43;;;;;;;;;;5113188;28;20211;-82
2023/12/18 08:52:11;;;;;;;4.33;2.93;;;;;;;;;;5113721;28;20195;-83
2023/12/18 08:54:37;;;;;;;3.37;2.83;;;;;;;;;;5113481;28;20200;-82
2023/12/18 08:57:08;;;;;;;3.47;3.17;;;;;;;;;;5112941;28;20196;-82
2023/12/18 08:59:35;;;;;;;3.70;2.97;;;;;;;;;;5113564;28;20203;-83
2023/12/18 09:02:02;;;;;;;1.40;1.30;;;;;;;;;;5113366;28;20199;-82
2023/12/18 09:04:29;;;;;;;1.00;0.97;;;;;;;;;;5112934;28;20203;-82
2023/12/18 09:06:56;;;;;;;1.20;1.20;;;;;;;;;;5112733;28;20230;-82
2023/12/18 09:09:23;;;;;;;1.67;1.57;;;;;;;;;;5112773;28;20711;-83
2023/12/18 09:11:50;;;;;;;1.20;1.10;;;;;;;;;;5113181;28;20199;-83
2023/12/18 09:14:18;;;;;;;1.93;1.20;;;;;;;;;;5112968;28;20202;-81
2023/12/18 09:16:45;;;;;;;2.07;1.40;;;;;;;;;;5113539;28;20202;-80
2023/12/18 09:19:11;;;;;;;1.30;1.20;;;;;;;;;;5112950;28;20195;-80
2023/12/18 09:21:38;;;;;;;1.57;1.40;;;;;;;;;;5112495;28;20195;-80
2023/12/18 09:24:07;;;;;;;1.40;1.30;;;;;;;;;;5112645;28;20682;-79
2023/12/18 09:26:34;;;;;;;1.10;1.00;;;;;;;;;;5113163;28;20223;-79
2023/12/18 09:29:01;;;;;;;1.20;1.10;;;;;;;;;;5112408;28;20226;-79
2023/12/18 09:31:29;;;;;;;1.40;1.30;;;;;;;;;;5112788;28;20294;-79
2023/12/18 09:33:56;;;;;;;1.80;1.70;;;;;;;;;;5112634;28;20191;-79
2023/12/18 09:36:23;;;;;;;1.20;1.20;;;;;;;;;;5112277;28;20203;-79
2023/12/18 09:38:50;;;;;;;3.53;1.23;;;;;;;;;;5112311;28;20662;-79
2023/12/18 09:41:22;;;;;;;1.30;1.20;;;;;;;;;;5112476;28;20566;-79
2023/12/18 09:43:51;;;;;;;1.43;1.30;;;;;;;;;;5112572;28;20227;-79
2023/12/18 09:46:18;;;;;;;3.50;1.80;;;;;;;;;;5112874;28;20238;-79
2023/12/18 09:48:47;;;;;;;2.20;1.80;;;;;;;;;;5112882;28;20196;-79
2023/12/18 09:51:17;;;;;;;1.63;1.50;;;;;;;;;;5110707;28;20195;-80
2023/12/18 09:53:44;;;;;;;1.53;1.33;;;;;;;;;;5096204;28;20199;-79
2023/12/18 09:56:11;;;;;;;1.80;1.43;;;;;;;;;;5112107;28;20208;-79
2023/12/18 09:58:39;;;;;;;1.07;1.07;;;;;;;;;;5112479;28;20214;-79
2023/12/18 10:01:06;;;;;;;1.60;1.50;;;;;;;;;;5112081;28;20199;-80
2023/12/18 10:03:33;;;;;;;3.33;2.00;;;;;;;;;;5112616;28;20216;-79
2023/12/18 10:06:01;;;;;;;2.47;2.20;;;;;;;;;;5111743;28;20682;-79
2023/12/18 10:08:28;;;;;;;4.83;2.20;;;;;;;;;;5110414;28;20200;-80
2023/12/18 10:10:55;;;;;;;7.23;3.17;;;;;;;;;;5112455;28;20198;-80
2023/12/18 10:13:22;;;;;;;3.93;2.83;;;;;;;;;;5110624;28;20206;-80
2023/12/18 10:15:50;;;;;;;2.83;2.37;;;;;;;;;;5109485;28;20298;-79
2023/12/18 10:18:17;;;;;;;2.20;2.00;;;;;;;;;;5091567;28;20207;-79
2023/12/18 10:20:48;;;;;;;3.77;2.70;;;;;;;;;;5092433;28;20234;-79
2023/12/18 10:23:16;;;;;;;4.10;2.80;;;;;;;;;;5096742;28;20200;-80
2023/12/18 10:25:43;;;;;;;3.77;3.20;;;;;;;;;;5100275;28;20208;-79
2023/12/18 10:28:10;;;;;;;4.03;3.50;;;;;;;;;;5114659;28;20238;-79
2023/12/18 10:30:37;;;;;;;6.77;4.70;;;;;;;;;;5095563;28;20203;-80
2023/12/18 10:33:09;;;;;;;6.20;5.13;;;;;;;;;;5095503;28;20211;-79
2023/12/18 10:35:36;;;;;;;8.40;4.57;;;;;;;;;;5110909;28;20199;-80
2023/12/18 10:38:04;;;;;;;4.40;4.00;;;;;;;;;;5116395;28;20206;-79
2023/12/18 10:40:32;;;;;;;12.03;7.87;;;;;;;;;;5116303;28;20193;-79
2023/12/18 10:43:08;;;;;;;16.93;10.50;;;;;;;;;;5115822;28;20206;-79
2023/12/18 10:45:35;;;;;;;16.97;11.47;;;;;;;;;;5116299;28;20191;-79
2023/12/18 10:48:02;;;;;;;12.23;9.97;;;;;;;;;;5115816;28;20223;-79
2023/12/18 10:50:31;;;;;;;14.40;10.50;;;;;;;;;;5115612;28;20207;-79
2023/12/18 10:52:59;;;;;;;10.70;8.90;;;;;;;;;;5115707;28;20196;-79
2023/12/18 10:55:27;;;;;;;14.10;12.63;;;;;;;;;;5115735;28;20200;-81
2023/12/18 10:57:57;;;;;;;8.83;8.00;;;;;;;;;;5115830;28;20202;-80
2023/12/18 11:00:24;;;;;;;13.07;10.53;;;;;;;;;;5116025;28;20230;-79
2023/12/18 11:02:52;;;;;;;15.70;10.73;;;;;;;;;;5113917;28;20207;-79
2023/12/18 11:05:21;;;;;;;15.10;10.80;;;;;;;;;;5115539;28;20199;-79
2023/12/18 11:07:49;;;;;;;14.93;11.20;;;;;;;;;;5115308;28;20226;-79
2023/12/18 11:10:15;;;;;;;14.07;11.73;;;;;;;;;;5116098;28;20541;-79
2023/12/18 11:12:43;;;;;;;11.47;9.97;;;;;;;;;;5115136;28;20201;-79
2023/12/18 11:15:15;;;;;;;9.47;8.40;;;;;;;;;;5115541;28;20191;-80
2023/12/18 11:17:50;;;;;;;21.27;13.73;;;;;;;;;;5115892;28;20286;-81
2023/12/18 11:20:21;;;;;;;16.13;10.07;;;;;;;;;;5115004;28;20191;-79
2023/12/18 11:22:48;;;;;;;10.57;8.07;;;;;;;;;;5115425;28;20661;-79
2023/12/18 11:25:18;;;;;;;4.97;4.47;;;;;;;;;;5114991;28;20199;-79
2023/12/18 11:27:50;;;;;;;11.73;8.37;;;;;;;;;;5114947;28;20226;-79
2023/12/18 11:30:25;;;;;;;12.83;10.57;;;;;;;;;;5114306;28;20203;-79
2023/12/18 11:32:53;;;;;;;7.77;6.97;;;;;;;;;;5113607;28;20206;-79
2023/12/18 11:35:28;;;;;;;15.07;11.77;;;;;;;;;;5115315;28;20196;-79
2023/12/18 11:37:59;;;;;;;13.53;10.27;;;;;;;;;;5114937;28;20220;-79
2023/12/18 11:40:42;;;;;;;12.53;10.90;;;;;;;;;;5114835;28;20199;-79
2023/12/18 11:43:10;;;;;;;13.73;11.03;;;;;;;;;;5114510;28;20199;-79
2023/12/18 11:45:40;;;;;;;15.67;11.13;;;;;;;;;;5114771;28;20199;-79
2023/12/18 11:48:09;;;;;;;12.57;11.23;;;;;;;;;;5114465;28;20223;-79
2023/12/18 11:50:37;;;;;;;13.70;10.57;;;;;;;;;;5114559;28;20192;-79
2023/12/18 11:53:09;;;;;;;13.63;9.77;;;;;;;;;;5114503;28;20195;-78
2023/12/18 11:55:41;;;;;;;11.67;9.17;;;;;;;;;;5113690;28;20199;-79
2023/12/18 11:58:09;;;;;;;19.17;9.87;;;;;;;;;;5114923;28;20200;-79
2023/12/18 12:00:36;;;;;;;12.00;8.83;;;;;;;;;;5112881;28;20202;-79
2023/12/18 12:03:05;;;;;;;12.17;10.33;;;;;;;;;;5114228;28;20199;-79
2023/12/18 12:05:33;;;;;;;8.63;7.77;;;;;;;;;;5114199;28;20196;-79
2023/12/18 12:08:00;;;;;;;9.07;7.83;;;;;;;;;;5114548;28;20219;-79
2023/12/18 12:10:27;;;;;;;13.87;9.90;;;;;;;;;;5114012;28;20199;-79
2023/12/18 12:12:54;;;;;;;12.93;10.50;;;;;;;;;;5115016;28;20564;-78
2023/12/18 12:15:23;;;;;;;11.30;9.00;;;;;;;;;;5113066;28;20215;-79
2023/12/18 12:17:50;;;;;;;19.47;13.53;;;;;;;;;;5113910;28;20295;-79
2023/12/18 12:20:18;;;;;;;12.07;9.93;;;;;;;;;;5113751;28;20671;-78
2023/12/18 12:22:45;;;;;;;12.70;10.37;;;;;;;;;;5113940;28;20256;-78
2023/12/18 12:25:12;;;;;;;14.20;10.30;;;;;;;;;;5114388;28;20619;-78
2023/12/18 12:27:39;;;;;;;11.90;9.90;;;;;;;;;;5113265;28;20226;-78
2023/12/18 12:30:08;;;;;;;14.63;9.57;;;;;;;;;;5114244;28;20256;-78
2023/12/18 12:32:35;;;;;;;14.27;10.63;;;;;;;;;;5113563;28;20205;-78
2023/12/18 12:35:02;;;;;;;16.50;11.47;;;;;;;;;;5113868;28;20203;-78
2023/12/18 12:37:32;;;;;;;14.93;11.67;;;;;;;;;;5112009;28;20195;-78
2023/12/18 12:40:00;;;;;;;15.77;10.67;;;;;;;;;;5099140;28;20231;-78
2023/12/18 12:42:27;;;;;;;12.27;10.80;;;;;;;;;;5092994;28;20200;-78
2023/12/18 12:44:54;;;;;;;12.90;10.73;;;;;;;;;;5110973;28;20283;-78
2023/12/18 12:47:21;;;;;;;13.23;10.77;;;;;;;;;;5113177;28;20312;-78
2023/12/18 12:49:48;;;;;;;12.73;11.43;;;;;;;;;;5113008;28;20191;-78
2023/12/18 12:52:15;;;;;;;16.00;10.97;;;;;;;;;;5102928;28;20207;-78
2023/12/18 12:54:45;;;;;;;12.73;10.73;;;;;;;;;;5105145;28;20728;-78
2023/12/18 12:57:12;;;;;;;12.07;10.27;;;;;;;;;;5113038;28;20199;-78
2023/12/18 12:59:50;;;;;;;13.57;10.50;;;;;;;;;;5112888;28;20187;-78
2023/12/18 13:02:17;;;;;;;11.57;9.50;;;;;;;;;;5113082;28;20195;-78
2023/12/18 13:04:44;;;;;;;30.20;20.47;;;;;;;;;;5113129;28;20280;-78
2023/12/18 13:07:11;;;;;;;30.07;21.80;;;;;;;;;;5113728;28;20226;-78
2023/12/18 13:09:38;;;;;;;35.83;24.67;;;;;;;;;;5113066;28;20218;-78
2023/12/18 13:12:12;;;;;;;27.07;19.50;;;;;;;;;;5110911;28;20245;-79
2023/12/18 13:14:39;;;;;;;45.80;29.70;;;;;;;;;;5112983;28;20196;-78
2023/12/18 13:17:06;;;;;;;22.73;18.23;;;;;;;;;;5113090;28;20203;-78
2023/12/18 13:19:33;;;;;;;24.63;16.07;;;;;;;;;;5111258;28;20199;-78
2023/12/18 13:22:01;;;;;;;52.70;32.20;;;;;;;;;;5112543;28;20676;-78
2023/12/18 13:24:29;;;;;;;43.63;30.07;;;;;;;;;;5113137;28;20200;-78
2023/12/18 13:26:55;;;;;;;49.33;31.93;;;;;;;;;;5112681;28;20203;-78
2023/12/18 13:29:23;;;;;;;56.13;35.00;;;;;;;;;;5111400;28;20215;-79
2023/12/18 13:31:50;;;;;;;41.53;27.57;;;;;;;;;;5111708;28;20256;-78
2023/12/18 13:34:17;;;;;;;25.60;22.33;;;;;;;;;;5111651;28;20196;-78
2023/12/18 13:36:46;;;;;;;32.20;28.63;;;;;;;;;;5112389;28;20195;-78
2023/12/18 13:39:14;;;;;;;34.10;28.80;;;;;;;;;;5112506;28;20199;-78
2023/12/18 13:41:41;;;;;;;26.93;22.67;;;;;;;;;;5112212;28;20202;-78
2023/12/18 13:44:08;;;;;;;27.63;21.00;;;;;;;;;;5112782;28;20573;-78
2023/12/18 13:46:37;;;;;;;39.27;27.40;;;;;;;;;;5113091;28;20199;-78
2023/12/18 13:49:04;;;;;;;31.80;28.50;;;;;;;;;;5112373;28;20219;-78
2023/12/18 13:51:32;;;;;;;23.23;20.00;;;;;;;;;;5100365;28;20200;-79
2023/12/18 13:53:59;;;;;;;26.53;23.73;;;;;;;;;;5091925;28;20196;-78
2023/12/18 13:56:26;;;;;;;45.23;33.50;;;;;;;;;;5091412;28;20200;-78
2023/12/18 13:58:53;;;;;;;45.40;33.67;;;;;;;;;;5105557;28;20567;-79
2023/12/18 14:01:20;;;;;;;71.23;44.27;;;;;;;;;;5112766;28;20196;-79
2023/12/18 14:03:48;;;;;;;71.33;45.83;;;;;;;;;;5112059;28;20242;-79
2023/12/18 14:06:15;;;;;;;46.40;32.83;;;;;;;;;;5111070;28;20191;-79
2023/12/18 14:08:42;;;;;;;74.97;50.00;;;;;;;;;;5110891;28;20217;-79
2023/12/18 14:11:08;;;;;;;52.47;35.00;;;;;;;;;;5111663;28;20554;-79
2023/12/18 14:13:35;;;;;;;59.10;40.43;;;;;;;;;;5111537;28;20312;-79
2023/12/18 14:16:03;;;;;;;58.23;38.93;;;;;;;;;;5112188;28;20196;-79
2023/12/18 14:18:30;;;;;;;65.20;48.53;;;;;;;;;;5112743;28;20195;-79
2023/12/18 14:20:58;;;;;;;53.73;39.83;;;;;;;;;;5112217;28;20203;-79
2023/12/18 14:23:27;;;;;;;48.20;37.27;;;;;;;;;;5108750;28;20196;-79
2023/12/18 14:25:54;;;;;;;50.87;38.27;;;;;;;;;;5097604;28;20214;-79
2023/12/18 14:28:21;;;;;;;30.80;26.00;;;;;;;;;;5111669;28;20227;-79
2023/12/18 14:30:48;;;;;;;43.57;35.30;;;;;;;;;;5112134;28;20211;-79
2023/12/18 14:33:15;;;;;;;56.00;41.03;;;;;;;;;;5111912;28;20575;-79
2023/12/18 14:35:44;;;;;;;128.33;87.53;;;;;;;;;;5111661;28;20230;-78